sensor_id;sensor_type;location;lat;lon;timestamp;P1;durP1;ratioP1;P2;durP2;ratioP2
29162;SDS011;20331;53.144;8.208;2022-12-24T13:00:32;20.50;;;3.90;;
29162;SDS011;20331;53.144;8.208;2022-12-24T13:11:15;26.42;;;3.72;;
29162;SDS011;20331;53.144;8.208;2022-12-24T13:21:43;23.92;;;3.50;;
29162;SDS011;20331;53.144;8.208;2022-12-24T14:03:54;25.58;;;3.83;;
29162;SDS011;20331;53.144;8.208;2022-12-24T14:14:33;22.30;;;3.70;;
29162;SDS011;20331;53.144;8.208;2022-12-24T14:35:34;18.67;;;3.05;;
29162;SDS011;20331;53.144;8.208;2022-12-24T14:46:01;21.83;;;3.83;;
29162;SDS011;20331;53.144;8.208;2022-12-24T14:56:31;22.55;;;3.72;;
29162;SDS011;20331;53.144;8.208;2022-12-24T15:06:53;17.65;;;3.10;;
29162;SDS011;20331;53.144;8.208;2022-12-24T15:17:17;20.73;;;3.30;;
29162;SDS011;20331;53.144;8.208;2022-12-24T15:27:39;23.80;;;3.97;;
29162;SDS011;20331;53.144;8.208;2022-12-24T15:38:01;29.80;;;4.17;;
29162;SDS011;20331;53.144;8.208;2022-12-24T15:48:27;23.73;;;4.38;;
29162;SDS011;20331;53.144;8.208;2022-12-24T15:58:51;23.73;;;3.70;;
29162;SDS011;20331;53.144;8.208;2022-12-24T16:09:35;24.75;;;3.70;;
29162;SDS011;20331;53.144;8.208;2022-12-24T16:20:03;25.35;;;3.63;;
29162;SDS011;20331;53.144;8.208;2022-12-24T16:30:27;27.33;;;3.35;;
29162;SDS011;20331;53.144;8.208;2022-12-24T16:40:49;19.93;;;3.73;;
29162;SDS011;20331;53.144;8.208;2022-12-24T16:51:10;21.70;;;3.27;;
29162;SDS011;20331;53.144;8.208;2022-12-24T17:01:32;16.00;;;3.13;;
29162;SDS011;20331;53.144;8.208;2022-12-24T17:11:54;14.77;;;2.60;;
29162;SDS011;20331;53.144;8.208;2022-12-24T17:22:15;16.27;;;3.20;;
29162;SDS011;20331;53.144;8.208;2022-12-24T17:32:37;19.20;;;3.13;;
29162;SDS011;20331;53.144;8.208;2022-12-24T17:53:21;22.57;;;2.70;;
29162;SDS011;20331;53.144;8.208;2022-12-24T18:03:43;20.13;;;3.00;;
29162;SDS011;20331;53.144;8.208;2022-12-24T18:14:05;22.08;;;2.97;;
29162;SDS011;20331;53.144;8.208;2022-12-24T18:24:28;20.52;;;3.47;;
29162;SDS011;20331;53.144;8.208;2022-12-24T18:34:50;18.23;;;3.07;;
29162;SDS011;20331;53.144;8.208;2022-12-24T18:55:33;14.15;;;3.15;;
29162;SDS011;20331;53.144;8.208;2022-12-24T19:05:59;19.15;;;3.60;;
29162;SDS011;20331;53.144;8.208;2022-12-24T19:16:22;14.63;;;3.88;;
29162;SDS011;20331;53.144;8.208;2022-12-24T19:26:43;23.30;;;4.00;;
29162;SDS011;20331;53.144;8.208;2022-12-24T19:37:05;21.07;;;3.90;;
29162;SDS011;20331;53.144;8.208;2022-12-24T19:47:27;19.90;;;3.90;;
29162;SDS011;20331;53.144;8.208;2022-12-24T19:57:50;22.53;;;3.77;;
29162;SDS011;20331;53.144;8.208;2022-12-24T20:08:12;20.30;;;4.60;;
29162;SDS011;20331;53.144;8.208;2022-12-24T20:18:34;21.60;;;4.27;;
29162;SDS011;20331;53.144;8.208;2022-12-24T20:28:56;22.30;;;4.35;;
29162;SDS011;20331;53.144;8.208;2022-12-24T20:39:17;22.97;;;4.47;;
29162;SDS011;20331;53.144;8.208;2022-12-24T20:49:39;20.17;;;5.13;;
29162;SDS011;20331;53.144;8.208;2022-12-24T21:00:01;19.08;;;4.75;;
29162;SDS011;20331;53.144;8.208;2022-12-24T21:10:24;25.23;;;5.47;;
29162;SDS011;20331;53.144;8.208;2022-12-24T21:20:54;30.75;;;6.60;;
29162;SDS011;20331;53.144;8.208;2022-12-24T21:31:15;29.97;;;6.93;;
29162;SDS011;20331;53.144;8.208;2022-12-24T21:41:37;22.27;;;7.55;;
29162;SDS011;20331;53.144;8.208;2022-12-24T21:51:59;23.67;;;8.27;;
29162;SDS011;20331;53.144;8.208;2022-12-24T22:02:21;25.03;;;7.70;;
29162;SDS011;20331;53.144;8.208;2022-12-24T22:12:48;29.33;;;7.30;;
29162;SDS011;20331;53.144;8.208;2022-12-24T22:23:10;18.27;;;5.50;;
29162;SDS011;20331;53.144;8.208;2022-12-24T22:33:34;22.10;;;5.72;;
29162;SDS011;20331;53.144;8.208;2022-12-24T22:43:56;25.27;;;6.57;;
29162;SDS011;20331;53.144;8.208;2022-12-24T22:54:18;22.80;;;7.83;;
29162;SDS011;20331;53.144;8.208;2022-12-24T23:04:39;26.10;;;7.03;;
29162;SDS011;20331;53.144;8.208;2022-12-24T23:15:01;27.23;;;7.53;;
29162;SDS011;20331;53.144;8.208;2022-12-24T23:25:23;36.63;;;8.18;;
29162;SDS011;20331;53.144;8.208;2022-12-24T23:35:45;29.75;;;8.00;;
29162;SDS011;20331;53.144;8.208;2022-12-24T23:46:10;29.20;;;8.40;;
29162;SDS011;20331;53.144;8.208;2022-12-24T23:56:35;23.67;;;8.05;;
